sensor_id;sensor_type;location;lat;lon;timestamp;P1;durP1;ratioP1;P2;durP2;ratioP2
51499;SDS011;39101;53.478;6.158;2023-06-22T00:01:02;32.42;;;22.88;;
51499;SDS011;39101;53.478;6.158;2023-06-22T00:03:27;36.05;;;25.08;;
51499;SDS011;39101;53.478;6.158;2023-06-22T00:09:02;31.50;;;24.40;;
51499;SDS011;39101;53.478;6.158;2023-06-22T00:11:28;33.97;;;23.23;;
51499;SDS011;39101;53.478;6.158;2023-06-22T00:13:54;36.42;;;26.52;;
51499;SDS011;39101;53.478;6.158;2023-06-22T00:16:20;35.50;;;24.75;;
51499;SDS011;39101;53.478;6.158;2023-06-22T00:18:45;32.40;;;25.02;;
51499;SDS011;39101;53.478;6.158;2023-06-22T00:21:14;38.08;;;26.95;;
51499;SDS011;39101;53.478;6.158;2023-06-22T00:23:40;36.50;;;24.98;;
51499;SDS011;39101;53.478;6.158;2023-06-22T00:26:06;32.97;;;24.70;;
51499;SDS011;39101;53.478;6.158;2023-06-22T00:28:32;28.20;;;23.67;;
51499;SDS011;39101;53.478;6.158;2023-06-22T00:30:59;35.90;;;26.20;;
51499;SDS011;39101;53.478;6.158;2023-06-22T00:33:25;34.03;;;24.65;;
51499;SDS011;39101;53.478;6.158;2023-06-22T00:35:51;33.70;;;24.70;;
51499;SDS011;39101;53.478;6.158;2023-06-22T00:38:19;38.33;;;25.77;;
51499;SDS011;39101;53.478;6.158;2023-06-22T00:40:45;32.72;;;24.35;;
51499;SDS011;39101;53.478;6.158;2023-06-22T00:43:29;31.23;;;24.92;;
51499;SDS011;39101;53.478;6.158;2023-06-22T00:45:55;30.10;;;23.42;;
51499;SDS011;39101;53.478;6.158;2023-06-22T00:48:21;29.80;;;23.90;;
51499;SDS011;39101;53.478;6.158;2023-06-22T00:50:47;31.90;;;23.40;;
51499;SDS011;39101;53.478;6.158;2023-06-22T00:53:15;31.30;;;23.55;;
51499;SDS011;39101;53.478;6.158;2023-06-22T00:55:43;28.70;;;23.42;;
51499;SDS011;39101;53.478;6.158;2023-06-22T00:58:11;16.35;;;14.48;;
51499;SDS011;39101;53.478;6.158;2023-06-22T01:00:39;13.45;;;11.98;;
51499;SDS011;39101;53.478;6.158;2023-06-22T01:03:06;10.70;;;9.60;;
51499;SDS011;39101;53.478;6.158;2023-06-22T01:05:36;10.48;;;8.93;;
51499;SDS011;39101;53.478;6.158;2023-06-22T01:10:44;14.10;;;10.90;;
51499;SDS011;39101;53.478;6.158;2023-06-22T01:18:42;17.80;;;15.32;;
51499;SDS011;39101;53.478;6.158;2023-06-22T01:21:11;17.98;;;14.95;;
51499;SDS011;39101;53.478;6.158;2023-06-22T01:28:48;18.58;;;15.48;;
51499;SDS011;39101;53.478;6.158;2023-06-22T01:31:16;19.67;;;17.17;;
51499;SDS011;39101;53.478;6.158;2023-06-22T01:34:04;23.42;;;20.90;;
51499;SDS011;39101;53.478;6.158;2023-06-22T01:36:31;24.50;;;21.92;;
51499;SDS011;39101;53.478;6.158;2023-06-22T01:38:58;26.45;;;22.15;;
51499;SDS011;39101;53.478;6.158;2023-06-22T01:41:27;25.27;;;20.80;;
51499;SDS011;39101;53.478;6.158;2023-06-22T01:43:56;26.92;;;22.77;;
51499;SDS011;39101;53.478;6.158;2023-06-22T01:46:24;29.25;;;23.40;;
51499;SDS011;39101;53.478;6.158;2023-06-22T01:48:50;30.55;;;25.55;;
51499;SDS011;39101;53.478;6.158;2023-06-22T01:51:17;30.70;;;27.23;;
51499;SDS011;39101;53.478;6.158;2023-06-22T01:53:43;26.38;;;22.90;;
51499;SDS011;39101;53.478;6.158;2023-06-22T01:56:09;28.70;;;24.60;;
51499;SDS011;39101;53.478;6.158;2023-06-22T01:58:35;28.48;;;25.48;;
51499;SDS011;39101;53.478;6.158;2023-06-22T02:01:11;30.42;;;26.17;;
51499;SDS011;39101;53.478;6.158;2023-06-22T02:03:44;31.38;;;25.00;;
51499;SDS011;39101;53.478;6.158;2023-06-22T02:06:36;30.60;;;26.20;;
51499;SDS011;39101;53.478;6.158;2023-06-22T02:09:09;29.33;;;24.92;;
51499;SDS011;39101;53.478;6.158;2023-06-22T02:11:40;33.75;;;27.83;;
51499;SDS011;39101;53.478;6.158;2023-06-22T02:14:08;37.03;;;29.80;;
51499;SDS011;39101;53.478;6.158;2023-06-22T02:16:34;37.15;;;30.20;;
51499;SDS011;39101;53.478;6.158;2023-06-22T02:19:01;35.50;;;28.80;;
51499;SDS011;39101;53.478;6.158;2023-06-22T02:21:31;34.38;;;28.17;;
51499;SDS011;39101;53.478;6.158;2023-06-22T02:23:57;36.53;;;30.67;;
51499;SDS011;39101;53.478;6.158;2023-06-22T02:26:24;38.22;;;28.80;;
51499;SDS011;39101;53.478;6.158;2023-06-22T02:28:52;41.05;;;30.90;;
51499;SDS011;39101;53.478;6.158;2023-06-22T02:31:22;36.85;;;30.30;;
51499;SDS011;39101;53.478;6.158;2023-06-22T02:33:57;36.33;;;29.50;;
51499;SDS011;39101;53.478;6.158;2023-06-22T02:36:23;39.20;;;29.60;;
51499;SDS011;39101;53.478;6.158;2023-06-22T02:38:53;39.45;;;31.13;;
51499;SDS011;39101;53.478;6.158;2023-06-22T02:41:21;40.33;;;31.23;;
51499;SDS011;39101;53.478;6.158;2023-06-22T02:43:47;42.28;;;33.03;;
51499;SDS011;39101;53.478;6.158;2023-06-22T02:46:13;40.17;;;30.98;;
51499;SDS011;39101;53.478;6.158;2023-06-22T02:48:40;40.60;;;29.33;;
51499;SDS011;39101;53.478;6.158;2023-06-22T02:51:06;37.75;;;28.13;;
51499;SDS011;39101;53.478;6.158;2023-06-22T02:53:32;37.40;;;27.83;;
51499;SDS011;39101;53.478;6.158;2023-06-22T02:55:58;35.50;;;28.83;;
51499;SDS011;39101;53.478;6.158;2023-06-22T02:58:26;39.78;;;32.00;;
51499;SDS011;39101;53.478;6.158;2023-06-22T03:00:52;38.97;;;29.13;;
51499;SDS011;39101;53.478;6.158;2023-06-22T03:03:18;39.00;;;29.50;;
51499;SDS011;39101;53.478;6.158;2023-06-22T03:05:44;38.33;;;29.70;;
51499;SDS011;39101;53.478;6.158;2023-06-22T03:08:10;36.97;;;28.63;;
51499;SDS011;39101;53.478;6.158;2023-06-22T03:10:36;42.45;;;29.17;;
51499;SDS011;39101;53.478;6.158;2023-06-22T03:13:02;39.47;;;31.10;;
51499;SDS011;39101;53.478;6.158;2023-06-22T03:15:28;33.50;;;27.70;;
51499;SDS011;39101;53.478;6.158;2023-06-22T03:17:57;41.45;;;29.38;;
51499;SDS011;39101;53.478;6.158;2023-06-22T03:20:23;39.25;;;28.35;;
51499;SDS011;39101;53.478;6.158;2023-06-22T03:22:50;36.30;;;27.58;;
51499;SDS011;39101;53.478;6.158;2023-06-22T03:25:15;41.40;;;29.52;;
51499;SDS011;39101;53.478;6.158;2023-06-22T03:27:41;38.92;;;28.13;;
51499;SDS011;39101;53.478;6.158;2023-06-22T03:30:13;37.08;;;28.88;;
51499;SDS011;39101;53.478;6.158;2023-06-22T03:32:38;36.13;;;27.65;;
51499;SDS011;39101;53.478;6.158;2023-06-22T03:35:04;27.45;;;22.02;;
51499;SDS011;39101;53.478;6.158;2023-06-22T03:37:31;23.88;;;18.38;;
51499;SDS011;39101;53.478;6.158;2023-06-22T03:39:57;28.95;;;23.13;;
51499;SDS011;39101;53.478;6.158;2023-06-22T03:42:22;27.15;;;23.00;;
51499;SDS011;39101;53.478;6.158;2023-06-22T03:44:48;23.15;;;18.85;;
51499;SDS011;39101;53.478;6.158;2023-06-22T03:47:14;21.92;;;17.48;;
51499;SDS011;39101;53.478;6.158;2023-06-22T03:49:39;24.95;;;20.65;;
51499;SDS011;39101;53.478;6.158;2023-06-22T03:52:05;28.98;;;23.45;;
51499;SDS011;39101;53.478;6.158;2023-06-22T03:54:31;34.83;;;26.25;;
51499;SDS011;39101;53.478;6.158;2023-06-22T03:56:57;33.95;;;24.98;;
51499;SDS011;39101;53.478;6.158;2023-06-22T03:59:25;41.08;;;29.42;;
51499;SDS011;39101;53.478;6.158;2023-06-22T04:01:51;36.38;;;26.95;;
51499;SDS011;39101;53.478;6.158;2023-06-22T04:04:18;36.10;;;27.00;;
51499;SDS011;39101;53.478;6.158;2023-06-22T04:06:44;37.40;;;30.05;;
51499;SDS011;39101;53.478;6.158;2023-06-22T04:09:09;44.20;;;33.13;;
51499;SDS011;39101;53.478;6.158;2023-06-22T04:11:35;40.67;;;30.27;;
51499;SDS011;39101;53.478;6.158;2023-06-22T04:14:02;39.75;;;30.35;;
51499;SDS011;39101;53.478;6.158;2023-06-22T04:16:28;46.33;;;33.15;;
51499;SDS011;39101;53.478;6.158;2023-06-22T04:18:54;46.47;;;33.78;;
51499;SDS011;39101;53.478;6.158;2023-06-22T04:21:19;46.50;;;34.90;;
51499;SDS011;39101;53.478;6.158;2023-06-22T04:23:45;47.83;;;35.38;;
51499;SDS011;39101;53.478;6.158;2023-06-22T04:26:11;44.85;;;34.28;;
51499;SDS011;39101;53.478;6.158;2023-06-22T04:28:39;52.22;;;38.00;;
51499;SDS011;39101;53.478;6.158;2023-06-22T04:34:43;52.17;;;37.90;;
51499;SDS011;39101;53.478;6.158;2023-06-22T04:37:09;51.22;;;36.55;;
51499;SDS011;39101;53.478;6.158;2023-06-22T04:39:49;53.08;;;36.53;;
51499;SDS011;39101;53.478;6.158;2023-06-22T04:42:15;54.08;;;39.08;;
51499;SDS011;39101;53.478;6.158;2023-06-22T04:44:41;49.15;;;38.38;;
51499;SDS011;39101;53.478;6.158;2023-06-22T04:47:07;48.63;;;37.05;;
51499;SDS011;39101;53.478;6.158;2023-06-22T04:49:34;43.58;;;36.35;;
51499;SDS011;39101;53.478;6.158;2023-06-22T04:52:08;46.40;;;37.75;;
51499;SDS011;39101;53.478;6.158;2023-06-22T04:57:02;46.17;;;35.50;;
51499;SDS011;39101;53.478;6.158;2023-06-22T04:59:30;50.25;;;38.45;;
51499;SDS011;39101;53.478;6.158;2023-06-22T05:01:57;53.78;;;40.40;;
51499;SDS011;39101;53.478;6.158;2023-06-22T05:04:24;44.10;;;37.30;;
51499;SDS011;39101;53.478;6.158;2023-06-22T05:06:52;45.40;;;35.55;;
51499;SDS011;39101;53.478;6.158;2023-06-22T05:09:19;45.30;;;37.78;;
51499;SDS011;39101;53.478;6.158;2023-06-22T05:11:45;46.47;;;37.90;;
51499;SDS011;39101;53.478;6.158;2023-06-22T05:14:24;48.95;;;36.53;;
51499;SDS011;39101;53.478;6.158;2023-06-22T05:16:51;48.58;;;38.40;;
51499;SDS011;39101;53.478;6.158;2023-06-22T05:19:18;44.10;;;34.97;;
51499;SDS011;39101;53.478;6.158;2023-06-22T05:21:44;44.78;;;35.40;;
51499;SDS011;39101;53.478;6.158;2023-06-22T05:24:09;44.58;;;36.28;;
51499;SDS011;39101;53.478;6.158;2023-06-22T05:26:35;43.05;;;35.20;;
51499;SDS011;39101;53.478;6.158;2023-06-22T05:29:02;42.67;;;34.28;;
51499;SDS011;39101;53.478;6.158;2023-06-22T05:31:28;38.42;;;31.63;;
51499;SDS011;39101;53.478;6.158;2023-06-22T05:33:55;46.20;;;35.47;;
51499;SDS011;39101;53.478;6.158;2023-06-22T05:36:21;39.97;;;33.17;;
51499;SDS011;39101;53.478;6.158;2023-06-22T05:38:50;39.67;;;32.57;;
51499;SDS011;39101;53.478;6.158;2023-06-22T05:41:20;38.35;;;30.25;;
51499;SDS011;39101;53.478;6.158;2023-06-22T05:43:48;40.42;;;30.95;;
51499;SDS011;39101;53.478;6.158;2023-06-22T05:46:14;40.47;;;33.10;;
51499;SDS011;39101;53.478;6.158;2023-06-22T05:48:43;38.47;;;31.73;;
51499;SDS011;39101;53.478;6.158;2023-06-22T05:51:08;39.47;;;30.15;;
51499;SDS011;39101;53.478;6.158;2023-06-22T05:53:34;32.40;;;27.90;;
51499;SDS011;39101;53.478;6.158;2023-06-22T05:56:00;36.10;;;28.75;;
51499;SDS011;39101;53.478;6.158;2023-06-22T05:58:25;33.88;;;27.95;;
51499;SDS011;39101;53.478;6.158;2023-06-22T06:00:51;31.00;;;27.52;;
51499;SDS011;39101;53.478;6.158;2023-06-22T06:03:18;31.30;;;27.40;;
51499;SDS011;39101;53.478;6.158;2023-06-22T06:05:44;36.13;;;27.92;;
51499;SDS011;39101;53.478;6.158;2023-06-22T06:08:10;31.23;;;23.58;;
51499;SDS011;39101;53.478;6.158;2023-06-22T06:10:37;28.58;;;23.38;;
51499;SDS011;39101;53.478;6.158;2023-06-22T06:13:03;36.42;;;24.73;;
51499;SDS011;39101;53.478;6.158;2023-06-22T06:15:30;27.50;;;23.63;;
51499;SDS011;39101;53.478;6.158;2023-06-22T06:17:57;30.13;;;23.02;;
51499;SDS011;39101;53.478;6.158;2023-06-22T06:20:23;28.25;;;23.42;;
51499;SDS011;39101;53.478;6.158;2023-06-22T06:22:50;26.42;;;21.75;;
51499;SDS011;39101;53.478;6.158;2023-06-22T06:25:16;29.58;;;23.48;;
51499;SDS011;39101;53.478;6.158;2023-06-22T06:27:44;25.60;;;22.30;;
51499;SDS011;39101;53.478;6.158;2023-06-22T06:30:11;27.92;;;23.25;;
51499;SDS011;39101;53.478;6.158;2023-06-22T06:32:38;26.08;;;21.02;;
51499;SDS011;39101;53.478;6.158;2023-06-22T06:35:05;25.02;;;20.73;;
51499;SDS011;39101;53.478;6.158;2023-06-22T06:37:35;23.38;;;19.30;;
51499;SDS011;39101;53.478;6.158;2023-06-22T06:40:03;28.88;;;18.70;;
51499;SDS011;39101;53.478;6.158;2023-06-22T06:42:35;23.85;;;18.92;;
51499;SDS011;39101;53.478;6.158;2023-06-22T06:45:17;22.90;;;18.65;;
51499;SDS011;39101;53.478;6.158;2023-06-22T06:47:45;22.70;;;19.33;;
51499;SDS011;39101;53.478;6.158;2023-06-22T06:50:11;23.05;;;19.48;;
51499;SDS011;39101;53.478;6.158;2023-06-22T06:52:37;22.20;;;17.75;;
51499;SDS011;39101;53.478;6.158;2023-06-22T06:55:04;19.95;;;17.13;;
51499;SDS011;39101;53.478;6.158;2023-06-22T06:57:30;18.38;;;15.60;;
51499;SDS011;39101;53.478;6.158;2023-06-22T06:59:56;24.02;;;19.75;;
51499;SDS011;39101;53.478;6.158;2023-06-22T07:02:22;23.88;;;17.83;;
51499;SDS011;39101;53.478;6.158;2023-06-22T07:05:05;18.98;;;14.57;;
51499;SDS011;39101;53.478;6.158;2023-06-22T07:07:50;19.92;;;15.68;;
51499;SDS011;39101;53.478;6.158;2023-06-22T07:10:15;19.73;;;15.93;;
51499;SDS011;39101;53.478;6.158;2023-06-22T07:12:41;17.98;;;13.88;;
51499;SDS011;39101;53.478;6.158;2023-06-22T07:15:08;19.05;;;16.38;;
51499;SDS011;39101;53.478;6.158;2023-06-22T07:17:35;19.98;;;17.33;;
51499;SDS011;39101;53.478;6.158;2023-06-22T07:20:02;19.40;;;16.23;;
51499;SDS011;39101;53.478;6.158;2023-06-22T07:22:35;19.63;;;17.63;;
51499;SDS011;39101;53.478;6.158;2023-06-22T07:25:01;22.40;;;18.25;;
51499;SDS011;39101;53.478;6.158;2023-06-22T07:27:30;26.10;;;21.07;;
51499;SDS011;39101;53.478;6.158;2023-06-22T07:30:01;23.15;;;18.17;;
51499;SDS011;39101;53.478;6.158;2023-06-22T07:32:28;23.58;;;19.83;;
51499;SDS011;39101;53.478;6.158;2023-06-22T07:34:54;19.45;;;16.65;;
51499;SDS011;39101;53.478;6.158;2023-06-22T07:37:20;16.77;;;15.05;;
51499;SDS011;39101;53.478;6.158;2023-06-22T07:39:48;18.58;;;14.88;;
51499;SDS011;39101;53.478;6.158;2023-06-22T07:42:18;17.75;;;13.50;;
51499;SDS011;39101;53.478;6.158;2023-06-22T07:44:44;22.30;;;14.68;;
51499;SDS011;39101;53.478;6.158;2023-06-22T07:47:10;17.13;;;13.65;;
51499;SDS011;39101;53.478;6.158;2023-06-22T07:49:35;14.63;;;11.32;;
51499;SDS011;39101;53.478;6.158;2023-06-22T07:52:01;14.80;;;11.85;;
51499;SDS011;39101;53.478;6.158;2023-06-22T07:54:27;14.35;;;11.27;;
51499;SDS011;39101;53.478;6.158;2023-06-22T07:56:52;14.95;;;10.80;;
51499;SDS011;39101;53.478;6.158;2023-06-22T07:59:18;16.25;;;11.02;;
51499;SDS011;39101;53.478;6.158;2023-06-22T08:01:44;12.50;;;10.90;;
51499;SDS011;39101;53.478;6.158;2023-06-22T08:04:09;13.48;;;10.70;;
51499;SDS011;39101;53.478;6.158;2023-06-22T08:06:35;13.60;;;11.07;;
51499;SDS011;39101;53.478;6.158;2023-06-22T08:09:01;14.07;;;11.50;;
51499;SDS011;39101;53.478;6.158;2023-06-22T08:11:26;11.05;;;9.85;;
51499;SDS011;39101;53.478;6.158;2023-06-22T08:13:53;14.00;;;9.93;;
51499;SDS011;39101;53.478;6.158;2023-06-22T08:16:21;13.77;;;10.80;;
51499;SDS011;39101;53.478;6.158;2023-06-22T08:18:47;13.93;;;9.70;;
51499;SDS011;39101;53.478;6.158;2023-06-22T08:21:12;14.43;;;11.38;;
51499;SDS011;39101;53.478;6.158;2023-06-22T08:23:38;12.55;;;8.98;;
51499;SDS011;39101;53.478;6.158;2023-06-22T08:26:04;12.23;;;9.55;;
51499;SDS011;39101;53.478;6.158;2023-06-22T08:28:29;13.15;;;8.32;;
51499;SDS011;39101;53.478;6.158;2023-06-22T08:30:55;16.38;;;11.70;;
51499;SDS011;39101;53.478;6.158;2023-06-22T08:33:21;11.95;;;10.32;;
51499;SDS011;39101;53.478;6.158;2023-06-22T08:35:55;13.50;;;9.05;;
51499;SDS011;39101;53.478;6.158;2023-06-22T08:38:21;14.00;;;9.48;;
51499;SDS011;39101;53.478;6.158;2023-06-22T08:40:46;12.10;;;8.98;;
51499;SDS011;39101;53.478;6.158;2023-06-22T08:43:13;26.45;;;12.45;;
51499;SDS011;39101;53.478;6.158;2023-06-22T08:45:39;15.50;;;11.40;;
51499;SDS011;39101;53.478;6.158;2023-06-22T08:48:06;30.00;;;12.00;;
51499;SDS011;39101;53.478;6.158;2023-06-22T08:50:32;14.18;;;9.85;;
51499;SDS011;39101;53.478;6.158;2023-06-22T08:52:58;14.65;;;10.57;;
51499;SDS011;39101;53.478;6.158;2023-06-22T08:55:23;11.05;;;8.57;;
51499;SDS011;39101;53.478;6.158;2023-06-22T08:57:49;10.68;;;6.97;;
51499;SDS011;39101;53.478;6.158;2023-06-22T09:00:17;11.93;;;6.63;;
51499;SDS011;39101;53.478;6.158;2023-06-22T09:02:45;7.40;;;5.97;;
51499;SDS011;39101;53.478;6.158;2023-06-22T09:05:12;10.25;;;6.45;;
51499;SDS011;39101;53.478;6.158;2023-06-22T09:07:38;9.48;;;6.93;;
51499;SDS011;39101;53.478;6.158;2023-06-22T09:10:04;11.00;;;7.10;;
51499;SDS011;39101;53.478;6.158;2023-06-22T09:12:30;8.32;;;6.50;;
51499;SDS011;39101;53.478;6.158;2023-06-22T09:14:58;11.93;;;7.35;;
51499;SDS011;39101;53.478;6.158;2023-06-22T09:17:25;11.93;;;7.28;;
51499;SDS011;39101;53.478;6.158;2023-06-22T09:19:51;9.50;;;7.80;;
51499;SDS011;39101;53.478;6.158;2023-06-22T09:22:17;9.45;;;7.30;;
51499;SDS011;39101;53.478;6.158;2023-06-22T09:24:42;10.27;;;7.50;;
51499;SDS011;39101;53.478;6.158;2023-06-22T09:27:08;9.60;;;7.53;;
51499;SDS011;39101;53.478;6.158;2023-06-22T09:29:34;9.82;;;7.30;;
51499;SDS011;39101;53.478;6.158;2023-06-22T09:32:00;11.43;;;7.85;;
51499;SDS011;39101;53.478;6.158;2023-06-22T09:34:26;10.60;;;7.32;;
51499;SDS011;39101;53.478;6.158;2023-06-22T09:36:52;8.55;;;6.43;;
51499;SDS011;39101;53.478;6.158;2023-06-22T09:39:18;11.40;;;7.75;;
51499;SDS011;39101;53.478;6.158;2023-06-22T09:41:44;11.40;;;7.13;;
51499;SDS011;39101;53.478;6.158;2023-06-22T09:44:22;12.57;;;6.32;;
51499;SDS011;39101;53.478;6.158;2023-06-22T09:46:48;11.20;;;7.07;;
51499;SDS011;39101;53.478;6.158;2023-06-22T09:49:14;15.27;;;8.77;;
51499;SDS011;39101;53.478;6.158;2023-06-22T09:51:41;10.07;;;7.32;;
51499;SDS011;39101;53.478;6.158;2023-06-22T09:54:08;9.30;;;6.82;;
51499;SDS011;39101;53.478;6.158;2023-06-22T09:59:21;9.80;;;6.93;;
51499;SDS011;39101;53.478;6.158;2023-06-22T10:01:49;8.10;;;6.03;;
51499;SDS011;39101;53.478;6.158;2023-06-22T10:04:14;9.30;;;6.90;;
51499;SDS011;39101;53.478;6.158;2023-06-22T10:06:41;8.30;;;5.60;;
51499;SDS011;39101;53.478;6.158;2023-06-22T10:09:07;8.77;;;6.45;;
51499;SDS011;39101;53.478;6.158;2023-06-22T10:11:36;8.90;;;5.93;;
51499;SDS011;39101;53.478;6.158;2023-06-22T10:14:05;10.60;;;6.60;;
51499;SDS011;39101;53.478;6.158;2023-06-22T10:16:31;8.38;;;6.40;;
51499;SDS011;39101;53.478;6.158;2023-06-22T10:18:57;7.47;;;5.88;;
51499;SDS011;39101;53.478;6.158;2023-06-22T10:21:23;7.65;;;6.15;;
51499;SDS011;39101;53.478;6.158;2023-06-22T10:23:49;6.47;;;4.65;;
51499;SDS011;39101;53.478;6.158;2023-06-22T10:26:15;6.38;;;4.97;;
51499;SDS011;39101;53.478;6.158;2023-06-22T10:28:41;8.52;;;4.55;;
51499;SDS011;39101;53.478;6.158;2023-06-22T10:31:08;6.95;;;4.40;;
51499;SDS011;39101;53.478;6.158;2023-06-22T10:33:33;8.60;;;5.53;;
51499;SDS011;39101;53.478;6.158;2023-06-22T10:36:17;7.72;;;5.57;;
51499;SDS011;39101;53.478;6.158;2023-06-22T10:38:43;8.70;;;4.18;;
51499;SDS011;39101;53.478;6.158;2023-06-22T10:41:09;5.68;;;3.97;;
51499;SDS011;39101;53.478;6.158;2023-06-22T10:43:34;5.22;;;3.30;;
51499;SDS011;39101;53.478;6.158;2023-06-22T10:46:00;5.15;;;3.30;;
51499;SDS011;39101;53.478;6.158;2023-06-22T10:48:26;5.25;;;3.47;;
51499;SDS011;39101;53.478;6.158;2023-06-22T10:50:51;6.55;;;2.80;;
51499;SDS011;39101;53.478;6.158;2023-06-22T10:53:18;5.85;;;3.30;;
51499;SDS011;39101;53.478;6.158;2023-06-22T10:55:44;4.80;;;2.60;;
51499;SDS011;39101;53.478;6.158;2023-06-22T10:58:09;6.55;;;2.88;;
51499;SDS011;39101;53.478;6.158;2023-06-22T11:00:35;4.13;;;2.35;;
51499;SDS011;39101;53.478;6.158;2023-06-22T11:03:01;4.75;;;2.42;;
51499;SDS011;39101;53.478;6.158;2023-06-22T11:05:26;3.88;;;2.10;;
51499;SDS011;39101;53.478;6.158;2023-06-22T11:07:52;5.38;;;2.25;;
51499;SDS011;39101;53.478;6.158;2023-06-22T11:10:18;3.63;;;2.30;;
51499;SDS011;39101;53.478;6.158;2023-06-22T11:12:43;2.65;;;1.80;;
51499;SDS011;39101;53.478;6.158;2023-06-22T11:15:09;3.47;;;2.10;;
51499;SDS011;39101;53.478;6.158;2023-06-22T11:17:36;4.35;;;2.55;;
51499;SDS011;39101;53.478;6.158;2023-06-22T11:20:02;3.42;;;2.20;;
51499;SDS011;39101;53.478;6.158;2023-06-22T11:22:36;4.97;;;2.13;;
51499;SDS011;39101;53.478;6.158;2023-06-22T11:25:05;5.72;;;2.03;;
51499;SDS011;39101;53.478;6.158;2023-06-22T11:27:31;4.00;;;2.28;;
51499;SDS011;39101;53.478;6.158;2023-06-22T11:29:57;3.63;;;1.80;;
51499;SDS011;39101;53.478;6.158;2023-06-22T11:32:23;3.05;;;1.75;;
51499;SDS011;39101;53.478;6.158;2023-06-22T11:34:49;4.63;;;2.75;;
51499;SDS011;39101;53.478;6.158;2023-06-22T11:37:15;4.88;;;2.00;;
51499;SDS011;39101;53.478;6.158;2023-06-22T11:39:45;3.17;;;1.90;;
51499;SDS011;39101;53.478;6.158;2023-06-22T11:42:11;24.58;;;3.75;;
51499;SDS011;39101;53.478;6.158;2023-06-22T11:44:37;3.17;;;1.92;;
51499;SDS011;39101;53.478;6.158;2023-06-22T11:47:03;4.65;;;2.10;;
51499;SDS011;39101;53.478;6.158;2023-06-22T11:49:30;4.30;;;1.80;;
51499;SDS011;39101;53.478;6.158;2023-06-22T11:51:56;2.97;;;1.88;;
51499;SDS011;39101;53.478;6.158;2023-06-22T11:54:21;4.28;;;1.83;;
51499;SDS011;39101;53.478;6.158;2023-06-22T11:56:47;4.45;;;2.00;;
51499;SDS011;39101;53.478;6.158;2023-06-22T11:59:15;2.33;;;1.48;;
51499;SDS011;39101;53.478;6.158;2023-06-22T12:01:40;13.30;;;3.83;;
51499;SDS011;39101;53.478;6.158;2023-06-22T12:04:06;2.28;;;1.60;;
51499;SDS011;39101;53.478;6.158;2023-06-22T12:10:13;3.50;;;1.58;;
51499;SDS011;39101;53.478;6.158;2023-06-22T12:12:39;5.10;;;1.98;;
51499;SDS011;39101;53.478;6.158;2023-06-22T12:15:05;3.15;;;1.65;;
51499;SDS011;39101;53.478;6.158;2023-06-22T12:17:31;2.97;;;1.50;;
51499;SDS011;39101;53.478;6.158;2023-06-22T12:19:57;4.20;;;1.83;;
51499;SDS011;39101;53.478;6.158;2023-06-22T12:22:23;2.72;;;1.95;;
51499;SDS011;39101;53.478;6.158;2023-06-22T12:24:49;3.33;;;1.90;;
51499;SDS011;39101;53.478;6.158;2023-06-22T12:27:14;3.60;;;1.60;;
51499;SDS011;39101;53.478;6.158;2023-06-22T12:29:47;3.78;;;2.05;;
51499;SDS011;39101;53.478;6.158;2023-06-22T12:32:13;2.85;;;1.70;;
51499;SDS011;39101;53.478;6.158;2023-06-22T12:34:39;3.30;;;1.52;;
51499;SDS011;39101;53.478;6.158;2023-06-22T12:37:06;4.13;;;1.67;;
51499;SDS011;39101;53.478;6.158;2023-06-22T12:39:32;4.25;;;1.65;;
51499;SDS011;39101;53.478;6.158;2023-06-22T12:41:57;3.97;;;2.00;;
51499;SDS011;39101;53.478;6.158;2023-06-22T12:44:23;2.05;;;1.50;;
51499;SDS011;39101;53.478;6.158;2023-06-22T12:46:49;3.88;;;1.60;;
51499;SDS011;39101;53.478;6.158;2023-06-22T12:49:15;2.72;;;1.50;;
51499;SDS011;39101;53.478;6.158;2023-06-22T12:51:41;3.13;;;1.52;;
51499;SDS011;39101;53.478;6.158;2023-06-22T12:54:08;2.42;;;1.60;;
51499;SDS011;39101;53.478;6.158;2023-06-22T12:56:34;2.58;;;1.50;;
51499;SDS011;39101;53.478;6.158;2023-06-22T12:59:00;3.67;;;1.50;;
51499;SDS011;39101;53.478;6.158;2023-06-22T13:01:28;2.78;;;1.55;;
51499;SDS011;39101;53.478;6.158;2023-06-22T13:03:55;3.35;;;1.58;;
51499;SDS011;39101;53.478;6.158;2023-06-22T13:06:21;4.72;;;1.50;;
51499;SDS011;39101;53.478;6.158;2023-06-22T13:11:40;4.25;;;1.67;;
51499;SDS011;39101;53.478;6.158;2023-06-22T13:14:06;3.25;;;1.73;;
51499;SDS011;39101;53.478;6.158;2023-06-22T13:16:31;14.93;;;2.55;;
51499;SDS011;39101;53.478;6.158;2023-06-22T13:18:59;3.63;;;1.60;;
51499;SDS011;39101;53.478;6.158;2023-06-22T13:21:24;4.40;;;1.90;;
51499;SDS011;39101;53.478;6.158;2023-06-22T13:23:50;3.63;;;1.80;;
51499;SDS011;39101;53.478;6.158;2023-06-22T13:26:16;4.85;;;2.13;;
51499;SDS011;39101;53.478;6.158;2023-06-22T13:28:41;3.85;;;2.13;;
51499;SDS011;39101;53.478;6.158;2023-06-22T13:31:07;4.43;;;2.22;;
51499;SDS011;39101;53.478;6.158;2023-06-22T13:33:32;3.80;;;2.03;;
51499;SDS011;39101;53.478;6.158;2023-06-22T13:35:58;3.60;;;1.90;;
51499;SDS011;39101;53.478;6.158;2023-06-22T13:38:24;5.18;;;2.88;;
51499;SDS011;39101;53.478;6.158;2023-06-22T13:40:50;3.75;;;1.92;;
51499;SDS011;39101;53.478;6.158;2023-06-22T13:43:16;3.65;;;2.25;;
51499;SDS011;39101;53.478;6.158;2023-06-22T13:45:42;5.45;;;2.05;;
51499;SDS011;39101;53.478;6.158;2023-06-22T13:51:33;6.38;;;3.17;;
51499;SDS011;39101;53.478;6.158;2023-06-22T13:53:58;3.33;;;2.22;;
51499;SDS011;39101;53.478;6.158;2023-06-22T13:56:24;3.33;;;2.00;;
51499;SDS011;39101;53.478;6.158;2023-06-22T13:58:51;3.72;;;2.08;;
51499;SDS011;39101;53.478;6.158;2023-06-22T14:01:17;2.88;;;1.90;;
51499;SDS011;39101;53.478;6.158;2023-06-22T14:03:42;3.85;;;1.98;;
51499;SDS011;39101;53.478;6.158;2023-06-22T14:06:10;4.38;;;2.30;;
51499;SDS011;39101;53.478;6.158;2023-06-22T14:08:38;5.35;;;2.17;;
51499;SDS011;39101;53.478;6.158;2023-06-22T14:11:03;5.15;;;2.13;;
51499;SDS011;39101;53.478;6.158;2023-06-22T14:13:29;5.60;;;1.83;;
51499;SDS011;39101;53.478;6.158;2023-06-22T14:15:55;5.15;;;2.45;;
51499;SDS011;39101;53.478;6.158;2023-06-22T14:19:17;3.60;;;2.40;;
51499;SDS011;39101;53.478;6.158;2023-06-22T14:21:45;3.95;;;2.40;;
51499;SDS011;39101;53.478;6.158;2023-06-22T14:24:10;3.53;;;1.98;;
51499;SDS011;39101;53.478;6.158;2023-06-22T14:26:36;4.05;;;2.40;;
51499;SDS011;39101;53.478;6.158;2023-06-22T14:29:03;4.22;;;2.33;;
51499;SDS011;39101;53.478;6.158;2023-06-22T14:31:29;6.05;;;2.50;;
51499;SDS011;39101;53.478;6.158;2023-06-22T14:33:54;5.20;;;2.30;;
51499;SDS011;39101;53.478;6.158;2023-06-22T14:36:20;4.28;;;2.30;;
51499;SDS011;39101;53.478;6.158;2023-06-22T14:38:46;4.50;;;1.98;;
51499;SDS011;39101;53.478;6.158;2023-06-22T14:41:12;3.67;;;2.00;;
51499;SDS011;39101;53.478;6.158;2023-06-22T14:43:47;3.85;;;2.20;;
51499;SDS011;39101;53.478;6.158;2023-06-22T14:46:19;4.00;;;2.22;;
51499;SDS011;39101;53.478;6.158;2023-06-22T14:48:45;3.78;;;2.20;;
51499;SDS011;39101;53.478;6.158;2023-06-22T14:51:11;6.38;;;2.45;;
51499;SDS011;39101;53.478;6.158;2023-06-22T14:53:37;4.22;;;2.38;;
51499;SDS011;39101;53.478;6.158;2023-06-22T14:56:03;3.92;;;2.50;;
51499;SDS011;39101;53.478;6.158;2023-06-22T14:58:33;5.28;;;2.40;;
51499;SDS011;39101;53.478;6.158;2023-06-22T15:01:02;4.65;;;2.60;;
51499;SDS011;39101;53.478;6.158;2023-06-22T15:03:29;3.60;;;2.70;;
51499;SDS011;39101;53.478;6.158;2023-06-22T15:05:57;4.88;;;2.50;;